• Join FlightAware (Why Join?)
  • Login
  • US Flag 
08:59AM EDT


 

Airport Tracker/Info


-or-


 

Live Flight TrackerFlight Track Log ✈ FLG3733 ✈ 11-Oct-2013 ✈ KALB - KDTW

Flight Track Log - Related Links

Times and Time Zones

All times are in EDT time to prevent confusion due to time zone crossing. See the FLG3733 flight status page for this flight to view local times or setup timezone preferences in your user account.

Time Position Orientation Groundspeed Altitude Reporting Facility
EDT Latitude Longitude Course Direction KTS MPH feet Rate Location/Type
04:42PM 42.7694 -73.8089 327° Northwest 140 161 1,500  Level Boston Center
04:43PM 42.8025 -73.8381 327° Northwest 201 231 2,800 1,920 Climbing Boston Center
04:45PM 42.8678 -73.9358 312° West 258 297 5,900 2,100 Climbing Boston Center
04:46PM 42.9147 -74.0106 311° West 283 326 8,000 2,280 Climbing Boston Center
04:47PM 42.9697 -74.1086 307° West 288 331 10,400 1,500 Climbing Boston Center
04:48PM 42.9825 -74.2253 279° West 317 365 11,100 1,140 Climbing Boston Center
04:49PM 42.9967 -74.3733 278° West 365 420 12,800 1,560 Climbing Boston Center
04:50PM 43.0092 -74.4986 278° West 373 429 14,300 1,560 Climbing Boston Center
04:51PM 43.0231 -74.6469 277° West 366 421 15,900 1,560 Climbing Boston Center
04:52PM 43.0353 -74.7694 278° West 366 421 17,400 1,380 Climbing Boston Center
04:53PM 43.0492 -74.9033 278° West 371 427 18,700 1,020 Climbing Boston Center
04:54PM 43.0606 -75.0403 277° West 365 420 19,500 720 Climbing Boston Center
04:55PM 43.0719 -75.1803 276° West 370 426 20,200 660 Climbing Boston Center
04:56PM 43.0850 -75.3228 277° West 370 426 20,900 660 Climbing Boston Center
04:57PM 43.0981 -75.4686 277° West 376 433 21,600 720 Climbing Boston Center
04:58PM 43.1122 -75.6314 277° West 386 444 22,400 720 Climbing Boston Center
04:59PM 43.1267 -75.7831 277° West 391 450 23,100 660 Climbing Boston Center
05:00PM 43.1389 -75.9344 276° West 396 456 23,800 600 Climbing Boston Center
05:02PM 43.1550 -76.2581 274° West 412 474 25,100 540 Climbing Cleveland Center
05:03PM 43.1414 -76.4139 263° West 416 479 25,600 480 Climbing Cleveland Center
05:04PM 43.1250 -76.6022 263° West 415 478 26,200 480 Climbing Cleveland Center
05:05PM 43.1114 -76.7597 263° West 420 483 26,700 480 Climbing Cleveland Center
05:06PM 43.0978 -76.9186 263° West 422 486 27,200 480 Climbing Cleveland Center
05:07PM 43.0833 -77.0758 263° West 421 484 27,700 360 Climbing Cleveland Center
05:08PM 43.0694 -77.2314 263° West 417 480 28,000 -720 Climbing Cleveland Center
05:09PM 43.0500 -77.4267 262° West 435 501 26,300 -1,020 Descending Cleveland Center
05:10PM 43.0344 -77.5981 263° West 455 524 26,000 -180 Descending Cleveland Center
05:11PM 43.0175 -77.7669 262° West 456 525 26,000  Level Cleveland Center
05:12PM 43.0011 -77.9356 262° West 454 522 26,000  Level Cleveland Center
05:13PM 42.9842 -78.1058 262° West 457 526 26,000  Level Cleveland Center
05:14PM 42.9628 -78.3139 262° West 468 539 26,000  Level Cleveland Center
05:15PM 42.9453 -78.4844 262° West 460 529 26,000  Level Cleveland Center
05:16PM 42.9281 -78.6550 262° West 456 525 26,000  Level Cleveland Center
05:18PM 42.9028 -78.8247 259° West 458 527 26,000  Level Cleveland Center
05:19PM 42.8778 -78.9944 259° West 458 527 26,000  Level Cleveland Center
05:20PM 42.8483 -79.1981 259° West 459 528 26,000  Level Cleveland Center
05:21PM 42.8233 -79.3672 259° West 457 526 26,000  Level Cleveland Center
05:22PM 42.7978 -79.5367 258° West 458 527 26,000  Level Cleveland Center
05:23PM 42.7717 -79.7069 258° West 460 529 26,000  Level Cleveland Center
05:24PM 42.7478 -79.8764 259° West 458 527 26,000  Level Cleveland Center
05:25PM 42.7406 -80.0636 267° West 461 531 26,000  Level Cleveland Center
05:26PM 42.7344 -80.2375 267° West 459 528 26,000  Level Cleveland Center
05:27PM 42.7256 -80.4092 266° West 453 521 26,000  Level Cleveland Center
05:28PM 42.7172 -80.6106 267° West 454 522 26,000 -180 Level Cleveland Center
05:29PM 42.7097 -80.7881 267° West 466 536 25,700 -900 Descending Cleveland Center
05:30PM 42.6958 -80.9689 264° West 478 550 24,200 -840 Descending Cleveland Center
05:31PM 42.6758 -81.1472 261° West 476 548 24,000 -120 Descending Cleveland Center
05:32PM 42.6572 -81.3119 261° West 445 512 24,000  Level Cleveland Center
05:33PM 42.6386 -81.4736 261° West 434 499 24,000 -600 Level Cleveland Center
05:34PM 42.6181 -81.6394 260° West 440 506 22,800 -1,920 Descending Cleveland Center
05:35PM 42.5956 -81.8369 261° West 459 528 20,100 -2,280 Descending Cleveland Center
05:36PM 42.5753 -81.9953 260° West 436 502 18,100 -1,800 Descending Cleveland Center
05:37PM 42.5586 -82.1400 261° West 397 457 16,400 -1,980 Descending Cleveland Center
05:37PM 42.5561 -82.1792 265° West 388 447 15,800 -2,160 Descending Cleveland Center
05:38PM 42.5472 -82.2486 260° West 371 427 15,000 -1,140 Descending Cleveland Center
05:38PM 42.5403 -82.2792 253° West 382 440 14,800 -1,620 Descending Cleveland Center
05:39PM 42.5294 -82.3881 262° West 366 421 13,400 -1,560 Descending Cleveland Center
05:39PM 42.5236 -82.4128 252° West 369 425 13,200 -1,380 Descending Cleveland Center
05:40PM 42.5097 -82.5214 260° West 361 415 12,000 -1,200 Descending Cleveland Center
05:40PM 42.4994 -82.5731 255° West 363 418 12,000  Level Cleveland Center
05:41PM 42.4658 -82.6656 244° Southwest 369 425 12,000  Level Cleveland Center
05:41PM 42.4525 -82.6981 241° Southwest 369 425 12,000 -1,020 Level Cleveland Center
05:42PM 42.4350 -82.8028 257° West 331 381 10,900 -1,260 Descending Cleveland Center
05:42PM 42.4297 -82.8211 249° West 341 392 10,700 -1,440 Descending Cleveland Center
05:43PM 42.4169 -82.9078 259° West 305 351 9,600 -1,500 Descending Cleveland Center
05:43PM 42.4106 -82.9319 250° West 316 364 9,200 -1,860 Descending Cleveland Center
05:44PM 42.3992 -83.0072 258° West 291 335 7,900 -1,800 Descending Cleveland Center
05:44PM 42.3928 -83.0389 255° West 298 343 7,400 -1,740 Descending Cleveland Center
05:45PM 42.3806 -83.1147 258° West 274 315 6,000 -2,040 Descending Cleveland Center
05:45PM 42.3731 -83.1567 256° West 277 319 5,300 -1,980 Descending Cleveland Center
05:46PM 42.3644 -83.2144 259° West 258 297 4,000 -1,800 Descending Cleveland Center
05:46PM 42.3456 -83.2419 227° Southwest 262 302 3,500 -1,380 Descending Cleveland Center
05:47PM 42.3081 -83.2686 208° Southwest 233 268 2,600 -1,260 Descending Cleveland Center
05:48PM 42.2872 -83.2831 207° Southwest 241 277 2,200 -1,020 Descending Cleveland Center
05:48PM 42.2592 -83.3042 209° Southwest 169 194 1,600 -780 Descending Cleveland Center
05:49PM 42.2450 -83.3136 206° Southwest 182 209 1,400 -840 Descending Cleveland Center
05:49PM 42.2233 -83.3328 213° Southwest 141 162 800 -540 Descending Cleveland Center
05:50PM 42.2075 -83.3403 199° South 158 182 900 180 Climbing Cleveland Center
05:52PM 42.2000 -83.3500 246° West  Level FlightAware Approximate
05:59PM 42.2124 -83.3534 246° West  Level Estimated